createdAt,value
2018-11-11T00:01:52.485Z,25.53
2018-11-11T00:06:49.469Z,25.50
2018-11-11T00:11:46.174Z,23.67
2018-11-11T00:16:43.036Z,26.23
2018-11-11T00:21:39.811Z,24.37
2018-11-11T00:26:36.446Z,26.60
2018-11-11T00:31:33.273Z,25.50
2018-11-11T00:36:30.040Z,25.00
2018-11-11T00:41:26.765Z,25.73
2018-11-11T00:46:23.513Z,26.20
2018-11-11T00:51:20.206Z,25.00
2018-11-11T00:56:16.884Z,25.63
2018-11-11T01:01:13.595Z,26.33
2018-11-11T01:06:10.386Z,25.57
2018-11-11T01:11:07.133Z,25.87
2018-11-11T01:16:04.179Z,25.00
2018-11-11T01:21:00.946Z,25.73
2018-11-11T01:25:57.763Z,26.03
2018-11-11T01:30:54.494Z,24.97
2018-11-11T01:35:51.181Z,25.63
2018-11-11T01:40:47.916Z,25.30
2018-11-11T01:45:44.622Z,27.07
2018-11-11T01:50:41.322Z,26.40
2018-11-11T01:55:38.015Z,27.37
2018-11-11T02:00:34.795Z,28.20
2018-11-11T02:05:31.517Z,29.60
2018-11-11T02:10:28.186Z,30.53
2018-11-11T02:15:24.925Z,29.67
2018-11-11T02:20:21.641Z,30.03
2018-11-11T02:25:18.319Z,31.47
2018-11-11T02:30:16.290Z,30.23
2018-11-11T02:35:13.258Z,30.43
2018-11-11T02:40:11.645Z,31.07
2018-11-11T02:45:09.414Z,29.73
2018-11-11T02:50:06.798Z,30.27
2018-11-11T02:55:03.551Z,31.77
2018-11-11T03:00:00.412Z,30.53
2018-11-11T03:04:57.316Z,33.67
2018-11-11T03:09:54.091Z,32.20
2018-11-11T03:14:50.823Z,34.10
2018-11-11T03:19:47.786Z,36.30
2018-11-11T03:24:44.484Z,35.37
2018-11-11T03:29:41.598Z,34.60
2018-11-11T03:34:38.297Z,38.50
2018-11-11T03:39:34.989Z,38.20
2018-11-11T03:44:31.789Z,38.43
2018-11-11T03:49:28.493Z,42.60
2018-11-11T03:54:25.331Z,40.73
2018-11-11T03:59:22.065Z,43.73
2018-11-11T04:04:18.841Z,42.87
2018-11-11T04:09:15.548Z,41.63
2018-11-11T04:14:12.318Z,40.13
2018-11-11T04:19:09.381Z,41.13
2018-11-11T04:24:06.329Z,40.27
2018-11-11T04:29:03.111Z,41.80
2018-11-11T04:34:00.020Z,41.53
2018-11-11T04:38:56.886Z,41.00
2018-11-11T04:43:53.635Z,40.27
2018-11-11T04:48:50.402Z,42.17
2018-11-11T04:53:47.170Z,37.67
2018-11-11T04:58:43.910Z,37.67
2018-11-11T05:03:40.614Z,39.23
2018-11-11T05:08:37.341Z,38.27
2018-11-11T05:13:34.095Z,37.03
2018-11-11T05:18:30.843Z,37.00
2018-11-11T05:23:27.628Z,37.83
2018-11-11T05:28:24.429Z,37.50
2018-11-11T05:33:21.251Z,36.40
2018-11-11T05:38:17.987Z,37.83
2018-11-11T05:43:14.712Z,38.67
2018-11-11T05:48:11.430Z,38.17
2018-11-11T05:53:08.171Z,39.77
2018-11-11T05:58:04.963Z,37.07
2018-11-11T06:03:01.871Z,35.83
2018-11-11T06:07:58.573Z,37.40
2018-11-11T06:12:55.232Z,37.60
2018-11-11T06:17:51.895Z,37.80
2018-11-11T06:22:48.656Z,37.37
2018-11-11T06:27:45.413Z,39.17
2018-11-11T06:32:42.463Z,37.13
2018-11-11T06:37:40.637Z,34.47
2018-11-11T06:42:37.826Z,33.87
2018-11-11T06:47:34.529Z,34.10
2018-11-11T06:59:58.933Z,35.03
2018-11-11T07:04:55.701Z,32.77
2018-11-11T07:09:52.571Z,34.53
2018-11-11T07:14:49.289Z,29.33
2018-11-11T07:19:46.013Z,29.47
2018-11-11T07:24:42.784Z,27.73
2018-11-11T07:29:39.536Z,27.97
2018-11-11T07:34:36.223Z,27.07
2018-11-11T07:39:32.981Z,29.13
2018-11-11T07:44:29.735Z,27.60
2018-11-11T07:49:26.532Z,29.03
2018-11-11T07:54:23.324Z,28.67
2018-11-11T07:59:20.089Z,27.30
2018-11-11T08:04:16.859Z,25.90
2018-11-11T08:09:13.544Z,26.83
2018-11-11T08:14:10.358Z,26.07
2018-11-11T08:19:07.171Z,23.43
2018-11-11T08:24:06.995Z,24.73
2018-11-11T08:29:03.789Z,25.57
2018-11-11T08:34:00.726Z,25.97
2018-11-11T08:38:57.649Z,24.43
2018-11-11T08:43:54.347Z,26.87
2018-11-11T08:48:51.111Z,24.63
2018-11-11T08:53:47.932Z,26.50
2018-11-11T08:58:44.730Z,24.57
2018-11-11T09:03:41.757Z,24.90
2018-11-11T09:08:38.489Z,24.23
2018-11-11T09:13:35.285Z,24.17
2018-11-11T09:18:32.105Z,17.80
2018-11-11T09:23:28.871Z,16.37
2018-11-11T09:28:25.659Z,16.47
2018-11-11T09:33:27.613Z,16.17
2018-11-11T09:38:24.353Z,16.10
2018-11-11T09:43:21.129Z,15.00
2018-11-11T09:48:17.865Z,15.50
2018-11-11T09:53:14.637Z,14.60
2018-11-11T09:58:11.606Z,14.07
2018-11-11T10:03:20.538Z,13.20
2018-11-11T10:08:24.473Z,11.97
2018-11-11T10:13:28.718Z,12.37
2018-11-11T10:23:43.016Z,12.43
2018-11-11T10:33:59.591Z,11.12
2018-11-11T10:39:04.467Z,10.90
2018-11-11T10:44:04.320Z,10.80
2018-11-11T10:49:11.356Z,9.65
2018-11-11T10:59:22.235Z,9.68
2018-11-11T11:04:18.956Z,9.00
2018-11-11T11:09:15.647Z,8.68
2018-11-11T11:14:13.062Z,8.85
2018-11-11T11:19:09.803Z,8.98
2018-11-11T11:24:06.561Z,8.75
2018-11-11T11:29:03.645Z,8.67
2018-11-11T11:34:03.263Z,9.77
2018-11-11T11:39:00.050Z,9.03
2018-11-11T11:44:08.701Z,9.20
2018-11-11T11:49:05.449Z,8.70
2018-11-11T11:54:12.908Z,7.33
2018-11-11T11:59:09.633Z,7.72
2018-11-11T12:04:06.388Z,6.92
2018-11-11T12:09:04.890Z,7.10
2018-11-11T12:14:01.641Z,6.10
2018-11-11T12:18:58.378Z,6.37
2018-11-11T12:23:55.133Z,6.05
2018-11-11T12:28:51.906Z,6.90
2018-11-11T12:33:48.757Z,6.37
2018-11-11T12:38:45.447Z,7.53
2018-11-11T12:43:42.188Z,6.90
2018-11-11T12:48:39.247Z,6.85
2018-11-11T12:53:35.980Z,8.33
2018-11-11T12:58:32.723Z,8.93
2018-11-11T13:03:41.174Z,8.97
2018-11-11T13:08:37.947Z,8.80
2018-11-11T13:13:34.651Z,9.77
2018-11-11T13:18:31.654Z,10.70
2018-11-11T13:23:28.343Z,10.53
2018-11-11T13:28:25.114Z,11.43
2018-11-11T13:33:21.849Z,12.43
2018-11-11T13:38:18.703Z,11.50
2018-11-11T13:43:15.446Z,12.57
2018-11-11T13:48:17.849Z,12.53
2018-11-11T13:53:14.535Z,12.33
2018-11-11T13:58:11.363Z,13.47
2018-11-11T14:03:08.124Z,14.73
2018-11-11T14:08:04.994Z,13.27
2018-11-11T14:13:01.940Z,13.80
2018-11-11T14:17:58.781Z,14.13
2018-11-11T14:22:56.057Z,14.50
2018-11-11T14:27:52.746Z,14.60
2018-11-11T14:32:50.419Z,14.63
2018-11-11T14:37:47.608Z,16.60
2018-11-11T14:42:44.551Z,16.33
2018-11-11T14:47:53.746Z,18.17
2018-11-11T14:52:50.571Z,19.37
2018-11-11T14:57:47.326Z,22.13
2018-11-11T15:02:46.220Z,22.27
2018-11-11T15:07:43.062Z,23.90
2018-11-11T15:12:39.776Z,25.43
2018-11-11T15:17:36.515Z,27.27
2018-11-11T15:22:33.261Z,30.33
2018-11-11T15:27:29.961Z,33.47
2018-11-11T15:32:26.923Z,33.97
2018-11-11T15:37:24.012Z,33.20
2018-11-11T15:42:20.923Z,33.57
2018-11-11T15:47:17.638Z,33.73
2018-11-11T15:52:14.466Z,31.43
2018-11-11T15:57:11.632Z,31.87
2018-11-11T16:02:08.297Z,29.90
2018-11-11T16:07:05.302Z,33.37
2018-11-11T16:12:07.063Z,32.07
2018-11-11T16:17:04.125Z,32.77
2018-11-11T16:22:00.934Z,28.67
2018-11-11T16:26:59.909Z,31.17
2018-11-11T16:31:56.910Z,41.60
2018-11-11T16:36:53.598Z,28.30
2018-11-11T16:41:50.417Z,30.83
2018-11-11T16:46:47.174Z,30.03
2018-11-11T16:51:44.001Z,26.50
2018-11-11T16:56:40.730Z,25.57
2018-11-11T17:01:37.504Z,25.07
2018-11-11T17:06:34.293Z,24.60
2018-11-11T17:11:31.047Z,23.23
2018-11-11T17:16:27.818Z,23.80
2018-11-11T17:21:24.628Z,24.77
2018-11-11T17:26:21.368Z,27.67
2018-11-11T17:31:18.149Z,24.60
2018-11-11T17:36:14.946Z,23.73
2018-11-11T17:41:11.702Z,23.20
2018-11-11T17:46:08.418Z,23.10
2018-11-11T17:51:05.236Z,22.73
2018-11-11T17:56:02.892Z,25.80
2018-11-11T18:00:59.641Z,23.30
2018-11-11T18:05:56.571Z,22.80
2018-11-11T18:10:53.277Z,23.10
2018-11-11T18:15:50.075Z,24.90
2018-11-11T18:20:46.830Z,24.50
2018-11-11T18:25:43.575Z,24.67
2018-11-11T18:30:40.366Z,23.80
2018-11-11T18:35:37.085Z,23.83
2018-11-11T18:40:33.909Z,23.93
2018-11-11T18:45:30.618Z,23.70
2018-11-11T18:50:28.866Z,23.83
2018-11-11T18:55:25.637Z,24.67
2018-11-11T19:00:24.717Z,24.03
2018-11-11T19:05:22.084Z,25.20
2018-11-11T19:10:23.350Z,23.97
2018-11-11T19:15:20.611Z,23.93
2018-11-11T19:20:18.395Z,27.43
2018-11-11T19:25:16.526Z,25.50
2018-11-11T19:30:14.331Z,26.83
2018-11-11T19:35:12.175Z,24.53
2018-11-11T19:40:10.341Z,24.23
2018-11-11T19:45:10.594Z,23.67
2018-11-11T19:50:08.501Z,23.00
2018-11-11T19:55:05.811Z,24.13
2018-11-11T20:00:08.179Z,22.63
2018-11-11T20:05:06.254Z,22.73
2018-11-11T20:10:11.868Z,22.20
2018-11-11T20:15:13.894Z,23.37
2018-11-11T20:20:23.815Z,24.13
2018-11-11T20:25:21.078Z,24.60
2018-11-11T20:30:19.743Z,24.97
2018-11-11T20:35:18.137Z,25.80
2018-11-11T20:40:16.970Z,25.77
2018-11-11T20:45:19.214Z,24.40
2018-11-11T20:50:21.397Z,24.30
2018-11-11T20:55:18.853Z,25.27
2018-11-11T21:00:17.181Z,25.00
2018-11-11T21:05:15.228Z,24.17
2018-11-11T21:10:17.346Z,26.67
2018-11-11T21:15:16.245Z,26.87
2018-11-11T21:20:14.491Z,26.00
2018-11-11T21:25:11.748Z,25.13
2018-11-11T21:30:10.177Z,27.40
2018-11-11T21:35:07.483Z,25.03
2018-11-11T21:40:05.391Z,23.50
2018-11-11T21:45:02.101Z,25.43
2018-11-11T21:49:58.821Z,25.17
2018-11-11T21:54:55.540Z,27.93
2018-11-11T21:59:52.325Z,28.23
2018-11-11T22:04:49.092Z,27.70
2018-11-11T22:09:45.895Z,26.03
2018-11-11T22:14:42.526Z,26.03
2018-11-11T22:19:39.226Z,25.30
2018-11-11T22:24:36.027Z,26.07
2018-11-11T22:29:32.728Z,29.30
2018-11-11T22:34:29.458Z,27.20
2018-11-11T22:39:26.209Z,25.67
2018-11-11T22:44:23.005Z,24.93
2018-11-11T22:49:19.786Z,23.60
2018-11-11T22:54:16.524Z,23.23
2018-11-11T22:59:13.267Z,22.13
2018-11-11T23:04:10.036Z,22.53
2018-11-11T23:09:08.095Z,20.63
2018-11-11T23:14:04.907Z,22.43
2018-11-11T23:19:01.730Z,22.40
2018-11-11T23:23:58.421Z,22.33
2018-11-11T23:29:01.073Z,24.20
2018-11-11T23:33:57.860Z,21.87
2018-11-11T23:38:54.536Z,23.90
2018-11-11T23:43:51.226Z,22.03
2018-11-11T23:48:47.950Z,22.47
2018-11-11T23:53:44.700Z,23.23
2018-11-11T23:58:41.665Z,22.20
